createdAt,value
2019-01-12T00:00:14.021Z,15.00
2019-01-12T00:02:41.385Z,15.57
2019-01-12T00:05:11.785Z,16.00
2019-01-12T00:07:40.066Z,16.23
2019-01-12T00:10:08.259Z,15.60
2019-01-12T00:12:35.815Z,16.47
2019-01-12T00:15:05.737Z,17.70
2019-01-12T00:17:33.297Z,17.10
2019-01-12T00:20:00.805Z,16.93
2019-01-12T00:22:28.186Z,17.63
2019-01-12T00:24:55.699Z,17.07
2019-01-12T00:27:23.278Z,16.83
2019-01-12T00:29:50.734Z,17.67
2019-01-12T00:32:18.143Z,18.20
2019-01-12T00:34:45.648Z,17.00
2019-01-12T00:37:13.237Z,17.70
2019-01-12T00:39:40.669Z,16.50
2019-01-12T00:42:08.283Z,16.03
2019-01-12T00:44:35.707Z,17.27
2019-01-12T00:47:03.707Z,16.87
2019-01-12T00:49:31.295Z,18.10
2019-01-12T00:51:58.665Z,17.37
2019-01-12T00:54:27.146Z,16.13
2019-01-12T00:56:54.661Z,17.43
2019-01-12T00:59:22.139Z,16.67
2019-01-12T01:01:49.539Z,17.10
2019-01-12T01:04:17.078Z,15.97
2019-01-12T01:06:44.509Z,17.37
2019-01-12T01:09:12.031Z,16.03
2019-01-12T01:11:39.548Z,17.97
2019-01-12T01:14:06.942Z,17.63
2019-01-12T01:16:35.670Z,18.17
2019-01-12T01:19:03.150Z,17.40
2019-01-12T01:21:30.624Z,17.47
2019-01-12T01:23:57.960Z,18.47
2019-01-12T01:26:25.478Z,16.47
2019-01-12T01:28:53.314Z,16.77
2019-01-12T01:31:20.658Z,16.87
2019-01-12T01:33:48.352Z,16.93
2019-01-12T01:36:15.744Z,16.73
2019-01-12T01:38:44.316Z,15.93
2019-01-12T01:41:11.779Z,16.87
2019-01-12T01:43:39.251Z,17.20
2019-01-12T01:46:07.207Z,17.37
2019-01-12T01:48:34.628Z,16.13
2019-01-12T01:51:01.949Z,16.40
2019-01-12T01:53:29.384Z,17.37
2019-01-12T01:55:57.352Z,15.57
2019-01-12T01:58:26.391Z,18.57
2019-01-12T02:00:53.868Z,17.77
2019-01-12T02:03:21.390Z,16.57
2019-01-12T02:05:53.237Z,16.60
2019-01-12T02:08:20.644Z,16.57
2019-01-12T02:10:48.041Z,17.53
2019-01-12T02:13:15.376Z,18.07
2019-01-12T02:15:43.193Z,17.93
2019-01-12T02:18:10.769Z,17.00
2019-01-12T02:20:38.642Z,17.87
2019-01-12T02:23:06.036Z,17.13
2019-01-12T02:25:33.512Z,18.30
2019-01-12T02:28:03.658Z,16.37
2019-01-12T02:30:30.977Z,18.37
2019-01-12T02:32:58.998Z,17.47
2019-01-12T02:35:26.405Z,16.87
2019-01-12T02:37:53.845Z,19.07
2019-01-12T02:40:21.442Z,18.63
2019-01-12T02:42:48.787Z,19.00
2019-01-12T02:45:17.774Z,18.70
2019-01-12T02:47:45.198Z,18.87
2019-01-12T02:50:12.997Z,19.00
2019-01-12T02:52:40.356Z,18.60
2019-01-12T02:55:09.024Z,20.83
2019-01-12T02:57:36.709Z,20.40
2019-01-12T03:00:08.633Z,18.80
2019-01-12T03:02:36.091Z,19.80
2019-01-12T03:05:03.834Z,20.77
2019-01-12T03:07:31.316Z,20.87
2019-01-12T03:09:58.849Z,20.87
2019-01-12T03:12:26.238Z,20.93
2019-01-12T03:14:53.574Z,21.37
2019-01-12T03:17:21.583Z,21.00
2019-01-12T03:19:48.980Z,20.93
2019-01-12T03:22:16.394Z,22.37
2019-01-12T03:24:43.935Z,22.17
2019-01-12T03:27:11.352Z,22.07
2019-01-12T03:29:38.812Z,23.10
2019-01-12T03:32:06.398Z,23.17
2019-01-12T03:34:33.784Z,23.73
2019-01-12T03:37:01.212Z,24.43
2019-01-12T03:39:28.657Z,25.07
2019-01-12T03:41:56.055Z,24.77
2019-01-12T03:44:23.530Z,23.70
2019-01-12T03:46:50.926Z,24.10
2019-01-12T03:49:18.323Z,22.30
2019-01-12T03:51:45.664Z,22.57
2019-01-12T03:54:13.203Z,22.80
2019-01-12T03:56:40.596Z,23.60
2019-01-12T03:59:08.007Z,23.40
2019-01-12T04:01:35.402Z,23.87
2019-01-12T04:04:02.957Z,23.83
2019-01-12T04:06:30.506Z,23.90
2019-01-12T04:08:58.072Z,23.60
2019-01-12T04:11:25.448Z,23.07
2019-01-12T04:13:52.782Z,24.70
2019-01-12T04:16:20.323Z,24.83
2019-01-12T04:18:47.837Z,24.17
2019-01-12T04:21:15.262Z,23.87
2019-01-12T04:23:42.752Z,24.80
2019-01-12T04:26:10.242Z,25.83
2019-01-12T04:28:38.115Z,25.27
2019-01-12T04:31:05.539Z,24.17
2019-01-12T04:33:33.046Z,24.03
2019-01-12T04:36:00.481Z,23.53
2019-01-12T04:38:28.080Z,26.60
2019-01-12T04:40:55.530Z,25.53
2019-01-12T04:43:22.946Z,24.73
2019-01-12T04:45:50.456Z,26.63
2019-01-12T04:48:19.593Z,25.03
2019-01-12T04:50:47.142Z,26.73
2019-01-12T04:53:14.641Z,27.87
2019-01-12T04:55:42.120Z,28.47
2019-01-12T04:58:09.465Z,27.73
2019-01-12T05:00:36.984Z,28.63
2019-01-12T05:03:04.368Z,29.70
2019-01-12T05:05:31.852Z,31.07
2019-01-12T05:07:59.349Z,31.43
2019-01-12T05:10:27.029Z,34.27
2019-01-12T05:12:54.522Z,36.90
2019-01-12T05:15:22.022Z,33.80
2019-01-12T05:17:49.472Z,34.90
2019-01-12T05:20:17.778Z,31.80
2019-01-12T05:22:45.693Z,33.03
2019-01-12T05:25:13.085Z,33.40
2019-01-12T05:27:40.582Z,33.53
2019-01-12T05:30:09.712Z,31.63
2019-01-12T05:32:37.144Z,29.87
2019-01-12T05:35:04.583Z,31.23
2019-01-12T05:37:36.743Z,30.27
2019-01-12T05:40:05.307Z,29.97
2019-01-12T05:42:32.744Z,30.83
2019-01-12T05:45:00.208Z,30.53
2019-01-12T05:47:27.600Z,28.97
2019-01-12T05:49:54.938Z,31.23
2019-01-12T05:52:22.404Z,31.33
2019-01-12T05:54:49.989Z,28.23
2019-01-12T05:57:17.401Z,25.17
2019-01-12T05:59:44.961Z,25.40
2019-01-12T06:02:12.397Z,25.17
2019-01-12T06:04:39.855Z,18.73
2019-01-12T06:07:07.357Z,20.87
2019-01-12T06:09:34.796Z,18.73
2019-01-12T06:12:02.253Z,19.80
2019-01-12T06:14:31.121Z,20.03
2019-01-12T06:16:58.515Z,18.43
2019-01-12T06:19:25.933Z,18.10
2019-01-12T06:21:55.236Z,19.67
2019-01-12T06:24:22.599Z,20.03
2019-01-12T06:26:49.997Z,21.60
2019-01-12T06:29:17.615Z,22.87
2019-01-12T06:31:45.029Z,21.23
2019-01-12T06:34:12.529Z,25.50
2019-01-12T06:36:40.099Z,27.07
2019-01-12T06:39:08.290Z,29.50
2019-01-12T06:41:35.626Z,28.80
2019-01-12T06:44:03.237Z,24.33
2019-01-12T06:46:30.675Z,24.53
2019-01-12T06:48:58.122Z,26.73
2019-01-12T06:51:25.579Z,28.80
2019-01-12T06:53:53.250Z,30.53
2019-01-12T06:56:20.603Z,28.93
2019-01-12T06:58:49.807Z,31.23
2019-01-12T07:01:17.236Z,30.57
2019-01-12T07:03:44.644Z,33.03
2019-01-12T07:06:12.137Z,32.87
2019-01-12T07:08:39.497Z,31.27
2019-01-12T07:11:07.025Z,33.63
2019-01-12T07:13:36.201Z,35.13
2019-01-12T07:16:03.779Z,32.60
2019-01-12T07:18:33.634Z,31.90
2019-01-12T07:21:03.245Z,33.10
2019-01-12T07:23:30.738Z,32.53
2019-01-12T07:25:58.196Z,33.50
2019-01-12T07:28:25.735Z,36.87
2019-01-12T07:30:53.155Z,34.53
2019-01-12T07:33:20.836Z,33.07
2019-01-12T07:35:48.328Z,33.83
2019-01-12T07:38:15.786Z,35.57
2019-01-12T07:40:43.236Z,37.63
2019-01-12T07:43:11.702Z,38.00
2019-01-12T07:45:39.156Z,41.30
2019-01-12T07:48:06.583Z,39.67
2019-01-12T07:50:34.113Z,39.17
2019-01-12T07:53:01.517Z,39.23
2019-01-12T07:55:29.196Z,39.93
2019-01-12T07:57:56.692Z,40.53
2019-01-12T08:00:24.311Z,42.17
2019-01-12T08:02:51.786Z,44.43
2019-01-12T08:05:19.285Z,44.73
2019-01-12T08:07:46.843Z,46.40
2019-01-12T08:10:15.597Z,47.23
2019-01-12T08:12:43.174Z,47.40
2019-01-12T08:15:13.650Z,47.30
2019-01-12T08:17:41.049Z,44.73
2019-01-12T08:20:09.954Z,45.57
2019-01-12T08:22:37.360Z,42.70
2019-01-12T08:25:10.819Z,43.63
2019-01-12T08:27:39.242Z,43.57
2019-01-12T08:30:14.306Z,46.43
2019-01-12T08:32:44.778Z,46.00
2019-01-12T08:35:12.208Z,49.83
2019-01-12T08:37:44.332Z,47.50
2019-01-12T08:40:11.920Z,47.17
2019-01-12T08:42:39.352Z,47.83
2019-01-12T08:45:08.953Z,44.10
2019-01-12T08:47:36.459Z,43.30
2019-01-12T08:50:05.474Z,43.83
2019-01-12T08:52:32.919Z,44.43
2019-01-12T08:55:00.478Z,45.17
2019-01-12T08:57:29.924Z,45.53
2019-01-12T08:59:57.833Z,42.57
2019-01-12T09:02:25.400Z,41.73
2019-01-12T09:04:54.212Z,44.17
2019-01-12T09:07:21.619Z,45.27
2019-01-12T09:09:49.132Z,47.63
2019-01-12T09:12:16.470Z,56.40
2019-01-12T09:14:43.968Z,60.00
2019-01-12T09:17:11.644Z,58.60
2019-01-12T09:19:40.895Z,57.87
2019-01-12T09:22:09.810Z,59.17
2019-01-12T09:24:38.886Z,58.80
2019-01-12T09:27:06.349Z,48.20
2019-01-12T09:29:34.781Z,48.10
2019-01-12T09:32:02.278Z,51.47
2019-01-12T09:34:29.982Z,46.67
2019-01-12T09:36:58.660Z,45.83
2019-01-12T09:39:26.104Z,48.67
2019-01-12T09:41:57.678Z,46.10
2019-01-12T09:44:26.155Z,42.17
2019-01-12T09:46:53.788Z,41.97
2019-01-12T09:49:28.611Z,39.77
2019-01-12T09:51:57.949Z,38.53
2019-01-12T09:54:27.631Z,40.13
2019-01-12T09:56:55.133Z,41.03
2019-01-12T09:59:22.631Z,40.50
2019-01-12T10:01:50.101Z,40.73
2019-01-12T10:04:17.558Z,41.67
2019-01-12T10:06:45.110Z,41.57
2019-01-12T10:09:12.564Z,45.57
2019-01-12T10:11:40.956Z,46.43
2019-01-12T10:14:09.555Z,44.03
2019-01-12T10:16:37.161Z,44.97
2019-01-12T10:19:04.678Z,41.23
2019-01-12T10:21:33.373Z,39.33
2019-01-12T10:24:02.687Z,39.47
2019-01-12T10:26:31.196Z,41.03
2019-01-12T10:29:00.177Z,42.87
2019-01-12T10:31:29.809Z,39.53
2019-01-12T10:33:58.921Z,38.60
2019-01-12T10:36:26.541Z,38.53
2019-01-12T10:38:54.162Z,36.67
2019-01-12T10:41:22.911Z,36.20
2019-01-12T10:43:50.346Z,34.00
2019-01-12T10:46:17.979Z,33.33
2019-01-12T10:48:45.387Z,32.73
2019-01-12T10:51:12.755Z,31.07
2019-01-12T10:53:40.099Z,31.83
2019-01-12T10:56:07.653Z,31.43
2019-01-12T10:58:35.331Z,30.60
2019-01-12T11:01:02.768Z,30.20
2019-01-12T11:03:31.096Z,32.40
2019-01-12T11:05:58.739Z,33.20
2019-01-12T11:08:27.810Z,36.53
2019-01-12T11:10:55.295Z,33.70
2019-01-12T11:13:24.473Z,35.90
2019-01-12T11:15:52.046Z,33.93
2019-01-12T11:18:21.461Z,31.20
2019-01-12T11:20:50.796Z,29.90
2019-01-12T11:23:22.475Z,30.80
2019-01-12T11:25:48.331Z,30.20
2019-01-12T11:28:15.870Z,30.87
2019-01-12T11:30:59.430Z,31.90
2019-01-12T11:33:28.583Z,31.13
2019-01-12T11:35:57.682Z,29.67
2019-01-12T11:38:29.496Z,33.57
2019-01-12T11:40:57.579Z,38.83
2019-01-12T11:43:26.829Z,38.77
2019-01-12T11:45:54.164Z,37.63
2019-01-12T11:48:21.741Z,32.90
2019-01-12T11:50:50.819Z,32.73
2019-01-12T11:53:19.173Z,36.30
2019-01-12T11:55:46.621Z,36.80
2019-01-12T11:58:17.357Z,36.43
2019-01-12T12:00:45.153Z,34.17
2019-01-12T12:03:15.185Z,35.13
2019-01-12T12:05:43.049Z,35.37
2019-01-12T12:08:10.517Z,37.03
2019-01-12T12:10:38.075Z,39.83
2019-01-12T12:13:11.866Z,40.27
2019-01-12T12:15:39.370Z,41.63
2019-01-12T12:18:09.337Z,42.00
2019-01-12T12:20:39.531Z,42.37
2019-01-12T12:23:14.939Z,41.67
2019-01-12T12:25:39.768Z,40.87
2019-01-12T12:28:21.156Z,40.07
2019-01-12T12:30:50.827Z,40.43
2019-01-12T12:33:19.984Z,38.27
2019-01-12T12:35:47.443Z,37.70
2019-01-12T12:38:14.981Z,41.67
2019-01-12T12:40:44.093Z,40.57
2019-01-12T12:43:11.633Z,42.87
2019-01-12T12:45:40.515Z,41.77
2019-01-12T12:48:08.433Z,42.20
2019-01-12T12:50:42.163Z,42.50
2019-01-12T12:53:09.606Z,41.87
2019-01-12T12:55:37.077Z,39.50
2019-01-12T12:58:05.720Z,40.30
2019-01-12T13:00:33.349Z,39.70
2019-01-12T13:03:02.329Z,38.83
2019-01-12T13:05:31.054Z,38.23
2019-01-12T13:07:58.590Z,37.40
2019-01-12T13:10:27.964Z,38.23
2019-01-12T13:12:55.315Z,39.10
2019-01-12T13:15:24.442Z,35.67
2019-01-12T13:17:51.911Z,33.20
2019-01-12T13:20:20.682Z,31.10
2019-01-12T13:22:49.514Z,30.07
2019-01-12T13:25:18.167Z,28.43
2019-01-12T13:27:46.457Z,29.70
2019-01-12T13:30:21.114Z,30.07
2019-01-12T13:32:48.766Z,30.27
2019-01-12T13:35:16.815Z,31.80
2019-01-12T13:37:44.261Z,31.70
2019-01-12T13:40:13.370Z,32.03
2019-01-12T13:42:51.922Z,30.80
2019-01-12T13:45:19.773Z,29.70
2019-01-12T13:47:47.267Z,31.20
2019-01-12T13:50:21.230Z,32.50
2019-01-12T13:52:49.171Z,32.43
2019-01-12T13:55:16.572Z,29.57
2019-01-12T13:57:47.832Z,33.13
2019-01-12T14:00:14.944Z,30.07
2019-01-12T14:02:43.969Z,31.03
2019-01-12T14:05:11.590Z,31.37
2019-01-12T14:07:39.046Z,29.40
2019-01-12T14:10:08.127Z,30.80
2019-01-12T14:12:38.503Z,31.97
2019-01-12T14:15:11.384Z,31.37
2019-01-12T14:17:41.287Z,28.97
2019-01-12T14:20:16.465Z,32.20
2019-01-12T14:22:44.409Z,33.03
2019-01-12T14:25:11.999Z,31.87
2019-01-12T14:27:39.539Z,30.03
2019-01-12T14:30:15.374Z,33.40
2019-01-12T14:32:42.655Z,33.80
2019-01-12T14:35:10.870Z,34.33
2019-01-12T14:37:40.654Z,37.60
2019-01-12T14:40:12.028Z,38.57
2019-01-12T14:42:39.474Z,44.17
2019-01-12T14:45:08.491Z,46.33
2019-01-12T14:47:35.892Z,46.10
2019-01-12T14:50:04.028Z,45.90
2019-01-12T14:52:32.422Z,49.57
2019-01-12T14:54:59.819Z,47.00
2019-01-12T14:57:27.291Z,48.13
2019-01-12T14:59:54.969Z,46.97
2019-01-12T15:02:23.205Z,47.10
2019-01-12T15:04:50.789Z,51.57
2019-01-12T15:07:18.884Z,50.70
2019-01-12T15:09:46.267Z,54.97
2019-01-12T15:12:14.129Z,57.07
2019-01-12T15:14:41.852Z,56.27
2019-01-12T15:17:09.318Z,58.00
2019-01-12T15:19:36.813Z,58.37
2019-01-12T15:22:04.369Z,59.87
2019-01-12T15:24:32.343Z,56.47
2019-01-12T15:26:59.901Z,53.43
2019-01-12T15:29:31.196Z,55.43
2019-01-12T15:31:58.716Z,58.77
2019-01-12T15:34:26.287Z,60.30
2019-01-12T15:36:53.740Z,61.03
2019-01-12T15:39:21.380Z,54.20
2019-01-12T15:41:48.817Z,52.63
2019-01-12T15:44:18.144Z,51.27
2019-01-12T15:46:51.548Z,44.37
2019-01-12T15:49:20.241Z,42.70
2019-01-12T15:51:47.688Z,40.60
2019-01-12T15:54:18.033Z,40.57
2019-01-12T15:56:58.518Z,39.70
2019-01-12T15:59:26.999Z,39.87
2019-01-12T16:01:57.123Z,40.63
2019-01-12T16:04:24.715Z,39.47
2019-01-12T16:06:52.109Z,40.47
2019-01-12T16:09:19.635Z,40.57
2019-01-12T16:11:48.791Z,39.83
2019-01-12T16:14:16.321Z,42.17
2019-01-12T16:16:43.642Z,42.17
2019-01-12T16:19:11.119Z,47.10
2019-01-12T16:21:39.948Z,44.33
2019-01-12T16:24:07.438Z,43.97
2019-01-12T16:26:36.335Z,46.83
2019-01-12T16:29:03.815Z,47.00
2019-01-12T16:31:33.139Z,47.53
2019-01-12T16:34:00.793Z,49.33
2019-01-12T16:36:34.629Z,49.80
2019-01-12T16:39:02.249Z,51.70
2019-01-12T16:41:29.794Z,49.73
2019-01-12T16:43:57.266Z,46.20
2019-01-12T16:46:26.281Z,46.33
2019-01-12T16:48:53.754Z,45.60
2019-01-12T16:51:21.232Z,45.07
2019-01-12T16:53:51.009Z,44.23
2019-01-12T16:56:18.541Z,43.73
2019-01-12T16:58:45.957Z,42.90
2019-01-12T17:01:13.509Z,41.83
2019-01-12T17:03:40.991Z,41.07
2019-01-12T17:06:09.410Z,40.13
2019-01-12T17:08:36.838Z,41.03
2019-01-12T17:11:06.698Z,40.20
2019-01-12T17:13:34.121Z,40.90
2019-01-12T17:16:01.509Z,39.37
2019-01-12T17:18:28.974Z,38.10
2019-01-12T17:20:56.353Z,39.00
2019-01-12T17:23:23.825Z,44.70
2019-01-12T17:25:51.283Z,44.70
2019-01-12T17:28:18.767Z,42.30
2019-01-12T17:31:00.919Z,42.67
2019-01-12T17:33:32.025Z,42.57
2019-01-12T17:35:59.953Z,40.37
2019-01-12T17:38:28.983Z,39.03
2019-01-12T17:40:58.567Z,38.90
2019-01-12T17:43:30.847Z,41.30
2019-01-12T17:46:11.006Z,41.43
2019-01-12T17:48:39.477Z,41.90
2019-01-12T17:51:15.790Z,42.53
2019-01-12T17:53:51.987Z,39.77
2019-01-12T17:56:44.235Z,41.23
2019-01-12T17:59:19.350Z,37.50
2019-01-12T18:01:46.192Z,36.07
2019-01-12T18:07:10.249Z,35.90
2019-01-12T18:09:42.063Z,31.67
2019-01-12T18:12:08.105Z,33.00
2019-01-12T18:14:56.433Z,33.07
2019-01-12T18:17:11.476Z,32.97
2019-01-12T18:19:51.049Z,31.23
2019-01-12T18:22:18.530Z,32.73
2019-01-12T18:24:48.351Z,30.40
2019-01-12T18:27:15.871Z,31.47
2019-01-12T18:29:45.973Z,31.07
2019-01-12T18:32:15.060Z,30.83
2019-01-12T18:34:48.622Z,31.30
2019-01-12T18:37:16.022Z,29.30
2019-01-12T18:39:54.882Z,30.47
2019-01-12T18:42:22.105Z,31.60
2019-01-12T18:44:54.276Z,31.30
2019-01-12T18:47:21.850Z,32.57
2019-01-12T18:50:04.245Z,34.17
2019-01-12T18:52:37.095Z,32.73
2019-01-12T18:55:10.160Z,32.07
2019-01-12T18:58:08.618Z,32.13
2019-01-12T19:00:26.173Z,29.23
2019-01-12T19:02:53.701Z,29.77
2019-01-12T19:05:26.006Z,30.60
2019-01-12T19:07:54.502Z,29.83
2019-01-12T19:10:21.909Z,32.10
2019-01-12T19:13:02.552Z,30.17
2019-01-12T19:15:30.158Z,28.17
2019-01-12T19:17:57.484Z,25.53
2019-01-12T19:20:24.827Z,25.30
2019-01-12T19:23:34.634Z,25.93
2019-01-12T19:25:33.357Z,25.53
2019-01-12T19:28:00.788Z,22.90
2019-01-12T19:30:28.227Z,25.10
2019-01-12T19:33:09.565Z,25.93
2019-01-12T19:35:54.558Z,24.20
2019-01-12T19:38:27.934Z,23.97
2019-01-12T19:40:55.324Z,25.23
2019-01-12T19:43:22.730Z,24.93
2019-01-12T19:45:50.146Z,23.00
2019-01-12T19:48:17.699Z,24.63
2019-01-12T19:50:45.037Z,25.00
2019-01-12T19:53:12.467Z,24.90
2019-01-12T19:55:39.908Z,22.73
2019-01-12T19:58:07.302Z,21.80
2019-01-12T20:00:34.778Z,25.27
2019-01-12T20:03:04.026Z,24.07
2019-01-12T20:05:33.766Z,24.27
2019-01-12T20:08:03.325Z,24.17
2019-01-12T20:10:30.604Z,23.27
2019-01-12T20:12:59.553Z,22.07
2019-01-12T20:15:26.969Z,23.47
2019-01-12T20:17:57.472Z,22.37
2019-01-12T20:20:24.868Z,23.47
2019-01-12T20:22:52.248Z,21.97
2019-01-12T20:25:21.165Z,23.47
2019-01-12T20:27:48.569Z,22.40
2019-01-12T20:30:23.201Z,22.90
2019-01-12T20:33:04.244Z,23.33
2019-01-12T20:35:33.220Z,21.90
2019-01-12T20:38:08.102Z,23.27
2019-01-12T20:40:42.816Z,22.83
2019-01-12T20:43:11.912Z,21.37
2019-01-12T20:45:48.425Z,20.87
2019-01-12T20:48:34.145Z,21.37
2019-01-12T20:51:03.184Z,20.00
2019-01-12T20:53:35.167Z,22.17
2019-01-12T20:56:10.009Z,20.83
2019-01-12T20:58:41.914Z,21.30
2019-01-12T21:01:27.737Z,21.53
2019-01-12T21:03:59.637Z,19.20
2019-01-12T21:06:45.149Z,19.67
2019-01-12T21:09:14.136Z,18.67
2019-01-12T21:11:46.100Z,18.77
2019-01-12T21:14:15.179Z,19.90
2019-01-12T21:16:42.713Z,21.43
2019-01-12T21:19:12.173Z,19.37
2019-01-12T21:21:39.695Z,19.00
2019-01-12T21:24:06.956Z,19.70
2019-01-12T21:26:47.018Z,19.27
2019-01-12T21:29:14.459Z,17.73
2019-01-12T21:31:41.836Z,18.50
2019-01-12T21:34:09.220Z,19.23
2019-01-12T21:36:36.644Z,18.80
2019-01-12T21:39:05.606Z,17.83
2019-01-12T21:41:35.693Z,16.17
2019-01-12T21:44:03.133Z,15.90
2019-01-12T21:46:30.489Z,15.33
2019-01-12T21:48:57.941Z,15.37
2019-01-12T21:51:27.790Z,15.97
2019-01-12T21:53:55.226Z,14.27
2019-01-12T21:56:22.701Z,15.07
2019-01-12T21:58:50.099Z,16.53
2019-01-12T22:01:23.202Z,15.43
2019-01-12T22:03:50.538Z,15.20
2019-01-12T22:06:18.056Z,18.10
2019-01-12T22:08:45.544Z,17.83
2019-01-12T22:11:12.971Z,16.83
2019-01-12T22:13:40.339Z,16.70
2019-01-12T22:16:07.957Z,18.33
2019-01-12T22:18:35.305Z,18.20
2019-01-12T22:21:02.856Z,16.67
2019-01-12T22:23:30.388Z,16.23
2019-01-12T22:25:58.083Z,16.57
2019-01-12T22:28:25.486Z,15.67
2019-01-12T22:30:55.959Z,16.73
2019-01-12T22:33:23.289Z,17.17
2019-01-12T22:35:50.688Z,17.13
2019-01-12T22:38:18.103Z,16.87
2019-01-12T22:40:45.445Z,15.97
2019-01-12T22:43:12.815Z,16.30
2019-01-12T22:45:40.197Z,15.23
2019-01-12T22:48:07.595Z,16.33
2019-01-12T22:50:34.966Z,16.83
2019-01-12T22:53:02.392Z,15.57
2019-01-12T22:55:31.450Z,16.33
2019-01-12T22:57:58.921Z,15.97
2019-01-12T23:00:38.552Z,15.53
2019-01-12T23:03:06.131Z,15.23
2019-01-12T23:05:35.269Z,15.83
2019-01-12T23:08:02.705Z,16.47
2019-01-12T23:10:30.430Z,15.50
2019-01-12T23:12:58.058Z,14.83
2019-01-12T23:15:25.419Z,16.37
2019-01-12T23:17:52.765Z,14.80
2019-01-12T23:20:20.110Z,15.70
2019-01-12T23:22:47.463Z,15.93
2019-01-12T23:25:14.861Z,16.40
2019-01-12T23:27:42.221Z,16.97
2019-01-12T23:30:11.321Z,16.30
2019-01-12T23:32:38.705Z,16.17
2019-01-12T23:35:07.208Z,17.40
2019-01-12T23:37:34.962Z,16.30
2019-01-12T23:40:02.427Z,16.27
2019-01-12T23:42:29.821Z,15.57
2019-01-12T23:44:57.229Z,14.93
2019-01-12T23:47:24.752Z,15.27
2019-01-12T23:49:52.121Z,15.13
2019-01-12T23:52:21.247Z,14.43
2019-01-12T23:54:48.664Z,13.77
2019-01-12T23:57:15.982Z,14.30
2019-01-12T23:59:43.411Z,14.03
